Latest Coastal Weather Observations for Maria Island

IDT60701

Issued at 1:35 am EST Saturday 19 April 2014 (issued every 10 minutes, with the page automatically refreshed every 10 minutes)

About coastal observations | Map of coastal stations | Coastal observations for TAS | Marine services | Other Formats
Station Details ID: 092124 Name: MARIA ISLAND (POINT LESUEUR) Lat: -42.66 Lon: 148.02 Height: 28.0 m
Data from the previous 72 hours. | See also: Recent months at Maria Island
Date/Time
EST
Temp

°C
Wind Pressure Rain
since 9am
mm
Weather Cloud Vis
km
Sea
Height
m
Swell
Dir
 
Speed
knots
Gust
knots
hPa Trend Height
m
Period
s
Dir
19/01:30am 10.8 WSW 17 23 1012.1 - 4.0 - - - - - - -
19/01:00am 10.9 WSW 15 23 1012.2 - 4.0 - - - - - - -
19/12:30am 11.0 WSW 16 23 1012.3 - 4.0 - - - - - - -
19/12:00am 11.3 WSW 16 21 1012.2 - 4.0 - - - - - - -
 
Date/Time
EST
Temp

°C
Wind Pressure Rain
since 9am
mm
Weather Cloud Vis
km
Sea
Height
m
Swell
Dir
 
Speed
knots
Gust
knots
hPa Trend Height
m
Period
s
Dir
18/11:30pm 11.4 WSW 16 23 1012.2 - 4.0 - - - - - - -
18/11:00pm 11.7 SW 19 24 1012.1 - 4.0 - - - - - - -
18/10:30pm 11.7 SW 21 28 1011.9 - 4.0 - - - - - - -
18/10:00pm 12.0 WSW 19 27 1011.8 - 4.0 - - - - - - -
18/09:30pm 11.6 SW 12 18 1012.0 - 4.0 - - - - - - -
18/09:00pm 11.9 SW 17 24 1011.6 - 4.0 - - - - - - -
18/08:30pm 12.3 WSW 20 25 1011.2 - 4.0 - - - - - - -
18/08:00pm 12.5 SW 21 26 1011.0 - 4.0 - - - - - - -
18/07:30pm 12.4 WSW 19 25 1010.7 - 4.0 - - - - - - -
18/07:00pm 12.6 SW 19 27 1010.4 - 4.0 - - - - - - -
18/06:30pm 12.6 SW 19 24 1010.2 - 4.0 - - - - - - -
18/06:00pm 12.9 SW 20 27 1009.8 - 4.0 - - - - - - -
18/05:35pm 13.1 SW 18 31 1009.4 - 4.0 - - - - - - -
18/05:30pm 13.2 SW 18 22 1009.4 - 4.0 - - - - - - -
18/05:00pm 13.6 SW 22 29 1008.6 - 4.0 - - - - - - -
18/04:32pm 14.3 SW 22 33 1008.1 - 4.0 - - - - - - -
18/04:30pm 14.3 SW 21 27 1008.2 - 4.0 - - - - - - -
18/04:00pm 14.0 SW 22 29 1007.8 - 4.0 - - - - - - -
18/03:32pm 14.1 SW 15 31 1007.5 - 4.0 - - - - - - -
18/03:30pm 14.3 SW 14 20 1007.7 - 4.0 - - - - - - -
18/03:00pm 13.4 SW 15 19 1007.4 - 4.0 - - - - - - -
18/02:30pm 13.4 SW 12 16 1007.1 - 4.0 - - - - - - -
18/02:00pm 13.1 SW 13 19 1007.0 - 4.0 - - - - - - -
18/01:30pm 12.9 SW 12 15 1007.1 - 4.0 - - - - - - -
18/01:00pm 12.9 WSW 10 13 1007.2 - 4.0 - - - - - - -
18/12:30pm 12.8 SSW 11 14 1006.9 - 4.0 - - - - - - -
18/12:00pm 12.4 SSW 13 16 1007.5 - 3.8 Rain - - - - - -
18/11:30am 12.7 SW 19 24 1007.7 - 3.4 - - - - - - -
18/11:18am 12.9 WSW 21 23 1007.3 - 3.0 - - - - - - -
18/11:13am 13.7 W 32 35 1006.5 - 2.2 - - - - - - -
18/11:11am 14.6 W 20 36 1006.8 - 1.6 - - - - - - -
18/11:00am 16.6 N 11 14 1006.3 - 0.0 - - - - - - -
18/10:30am 18.2 N 11 14 1006.6 - 0.0 - - - - - - -
18/10:00am 17.5 N 15 17 1006.3 - 0.0 - - - - - - -
18/09:30am 17.0 N 17 20 1006.9 - 0.0 - - - - - - -
18/09:00am 16.1 N 18 21 1007.3 - 0.0 - - - - - - -
18/08:30am 15.6 N 17 20 1008.1 - 0.0 - - - - - - -
18/08:00am 15.4 N 14 17 1008.3 - 0.0 - - - - - - -
18/07:30am 14.9 N 14 16 1008.9 - 0.0 - - - - - - -
18/07:00am 14.8 N 16 18 1009.1 - 0.0 - - - - - - -
18/06:30am 14.8 N 16 18 1009.4 - 0.0 - - - - - - -
18/06:00am 15.0 N 14 17 1009.6 - 0.0 - - - - - - -
18/05:30am 14.9 N 14 16 1010.3 - 0.0 - - - - - - -
18/05:00am 14.8 N 15 17 1010.5 - 0.0 - - - - - - -
18/04:30am 14.9 N 14 18 1010.9 - 0.0 - - - - - - -
18/04:00am 14.7 N 14 17 1011.3 - 0.0 - - - - - - -
18/03:30am 14.6 N 13 17 1011.6 - 0.0 - - - - - - -
18/03:00am 14.7 N 12 16 1011.9 - 0.0 - - - - - - -
18/02:30am 14.8 N 9 12 1012.5 - 0.0 - - - - - - -
18/02:00am 14.7 N 10 14 1012.9 - 0.0 - - - - - - -
18/01:30am 14.5 NNW 10 12 1013.5 - 0.0 - - - - - - -
18/01:00am 14.2 NW 7 8 1013.9 - 0.0 - - - - - - -
18/12:30am 14.8 N 12 16 1014.1 - 0.0 - - - - - - -
18/12:00am 14.9 N 12 16 1014.4 - 0.0 - - - - - - -
 
Date/Time
EST
Temp

°C
Wind Pressure Rain
since 9am
mm
Weather Cloud Vis
km
Sea
Height
m
Swell
Dir
 
Speed
knots
Gust
knots
hPa Trend Height
m
Period
s
Dir
17/11:30pm 15.0 N 13 15 1014.9 - 0.0 - - - - - - -
17/11:00pm 15.1 N 14 16 1015.3 - 0.0 - - - - - - -
17/10:30pm 15.0 N 15 17 1015.6 - 0.0 - - - - - - -
17/10:00pm 15.4 N 15 17 1016.0 - 0.0 - - - - - - -
17/09:30pm 15.7 N 14 15 1016.2 - 0.0 - - - - - - -
17/09:00pm 15.7 N 11 14 1016.5 - 0.0 - - - - - - -
17/08:30pm 15.9 N 12 15 1016.6 - 0.0 - - - - - - -
17/08:00pm 16.0 N 14 16 1016.5 - 0.0 - - - - - - -
17/07:30pm 16.1 N 16 18 1016.6 - 0.0 - - - - - - -
17/07:00pm 16.1 N 17 20 1016.8 - 0.0 - - - - - - -
17/06:30pm 16.0 NNE 13 17 1016.9 - 0.0 - - - - - - -
17/06:00pm 16.2 NNE 14 18 1016.7 - 0.0 - - - - - - -
17/05:30pm 16.4 NNE 16 19 1016.6 - 0.0 - - - - - - -
17/05:00pm 16.8 N 15 21 1016.4 - 0.0 - - - - - - -
17/04:30pm 17.2 NNE 15 18 1016.7 - 0.0 - - - - - - -
17/04:00pm 17.8 NNE 14 17 1017.0 - 0.0 - - - - - - -
17/03:30pm 18.4 N 12 16 1017.3 - 0.0 - - - - - - -
17/03:00pm 18.6 NNE 12 15 1017.6 - 0.0 - - - - - - -
17/02:30pm 19.0 NNE 11 15 1017.9 - 0.0 - - - - - - -
17/02:00pm 18.8 NNE 11 16 1018.3 - 0.0 - - - - - - -
17/01:30pm 18.9 N 12 14 1018.5 - 0.0 - - - - - - -
17/01:00pm 18.7 N 12 13 1018.9 - 0.0 - - - - - - -
17/12:30pm 18.9 N 9 11 1019.4 - 0.0 - - - - - - -
17/12:00pm 17.8 N 9 10 1019.9 - 0.0 - - - - - - -
17/11:30am 16.6 N 10 11 1020.4 - 0.0 - - - - - - -
17/11:00am 16.4 N 9 11 1020.6 - 0.0 - - - - - - -
17/10:30am 16.0 N 9 11 1020.5 - 0.0 - - - - - - -
17/10:00am 16.0 N 7 9 1020.7 - 0.0 - - - - - - -
17/09:30am 15.2 NNW 5 7 1020.9 - 0.0 - - - - - - -
17/09:00am 15.0 N 4 6 1020.9 - 0.0 - - - - - - -
17/08:30am 13.7 NNW 4 4 1021.0 - 0.0 - - - - - - -
17/08:00am 13.3 NW 4 6 1021.1 - 0.0 - - - - - - -
17/07:30am 13.0 NNW 5 6 1020.9 - 0.0 - - - - - - -
17/07:00am 12.3 NW 4 5 1020.7 - 0.0 - - - - - - -
17/06:30am 12.3 N 3 4 1020.4 - 0.0 - - - - - - -
17/06:00am 12.2 WNW 2 3 1020.3 - 0.0 - - - - - - -
17/05:30am 11.7 WNW 4 6 1020.4 - 0.0 - - - - - - -
17/05:00am 12.2 WNW 4 4 1020.3 - 0.0 - - - - - - -
17/04:30am 12.1 WNW 2 2 1020.1 - 0.0 - - - - - - -
17/04:00am 12.5 N 3 4 1020.1 - 0.0 - - - - - - -
17/03:30am 12.5 NNW 4 5 1020.2 - 0.0 - - - - - - -
17/03:00am 12.7 NNW 4 5 1020.1 - 0.0 - - - - - - -
17/02:30am 12.7 NNW 4 5 1020.0 - 0.0 - - - - - - -
17/02:00am 12.6 NW 4 5 1020.3 - 0.0 - - - - - - -
17/01:30am 13.3 NNE 4 5 1020.4 - 0.0 - - - - - - -
17/01:00am 13.8 N 6 7 1020.6 - 0.0 - - - - - - -
17/12:30am 14.0 N 6 7 1020.5 - 0.0 - - - - - - -
17/12:00am 13.8 NW 4 6 1020.7 - 0.0 - - - - - - -
 
Date/Time
EST
Temp

°C
Wind Pressure Rain
since 9am
mm
Weather Cloud Vis
km
Sea
Height
m
Swell
Dir
 
Speed
knots
Gust
knots
hPa Trend Height
m
Period
s
Dir
16/11:30pm 15.1 N 9 13 1020.7 - 0.0 - - - - - - -
16/11:00pm 15.1 N 11 13 1020.8 - 0.0 - - - - - - -
16/10:30pm 15.2 N 9 11 1020.8 - 0.0 - - - - - - -
16/10:00pm 15.6 N 10 12 1020.8 - 0.0 - - - - - - -
16/09:30pm 15.4 NNE 10 12 1020.8 - 0.0 - - - - - - -
16/09:00pm 15.5 NNE 9 11 1020.9 - 0.0 - - - - - - -
16/08:30pm 15.4 N 10 12 1020.7 - 0.0 - - - - - - -
16/08:00pm 14.9 NNE 9 10 1020.6 - 0.0 - - - - - - -
16/07:30pm 14.7 N 10 12 1020.5 - 0.0 - - - - - - -
16/07:00pm 14.6 N 8 10 1020.6 - 0.0 - - - - - - -
16/06:30pm 14.6 NNE 8 10 1020.5 - 0.0 - - - - - - -
16/06:00pm 14.9 NNE 8 10 1020.5 - 0.0 - - - - - - -
16/05:30pm 15.3 NNE 12 14 1020.3 - 0.0 - - - - - - -
16/05:00pm 15.6 N 8 10 1020.4 - 0.0 - - - - - - -
16/04:30pm 16.4 NNE 7 10 1020.4 - 0.0 - - - - - - -
16/04:00pm 16.8 N 8 10 1020.4 - 0.0 - - - - - - -
16/03:30pm 17.2 N 6 7 1020.6 - 0.0 - - - - - - -
16/03:00pm 17.7 N 9 10 1020.6 - 0.0 - - - - - - -
16/02:30pm 17.7 N 8 10 1020.5 - 0.0 - - - - - - -
16/02:00pm 18.0 NNE 5 8 1020.6 - 0.0 - - - - - - -
16/01:30pm 16.6 N 6 8 1020.9 - 0.0 - - - - - - -
16/01:00pm 16.0 N 7 9 1021.2 - 0.0 - - - - - - -
16/12:30pm 15.6 N 8 9 1021.7 - 0.0 - - - - - - -
16/12:00pm 16.5 N 9 11 1022.0 - 0.0 - - - - - - -
16/11:30am 16.6 N 8 10 1022.3 - 0.0 - - - - - - -
16/11:00am 16.1 NNW 2 5 1022.6 - 0.0 - - - - - - -
16/10:30am 15.3 NE 4 6 1022.8 - 0.0 - - - - - - -
16/10:00am 13.9 N 7 9 1023.0 - 0.0 - - - - - - -
16/09:30am 13.1 NNE 5 7 1023.3 - 0.0 - - - - - - -
16/09:00am 13.1 N 6 7 1023.6 - 0.0 - - - - - - -
16/08:30am 13.3 N 1 3 1023.7 - 0.0 - - - - - - -
16/08:00am 13.1 NE 2 2 1023.6 - 0.0 - - - - - - -
16/07:30am 12.7 CALM 0 0 1023.6 - 0.0 - - - - - - -
16/07:00am 12.1 NE 1 2 1023.3 - 0.0 - - - - - - -
16/06:30am 12.0 ENE 3 3 1023.1 - 0.0 - - - - - - -
16/06:00am 12.1 ESE 2 3 1023.0 - 0.0 - - - - - - -
16/05:30am 12.5 CALM 0 0 1023.1 - 0.0 - - - - - - -
16/05:00am 12.6 N 1 2 1023.1 - 0.0 - - - - - - -
16/04:30am 12.3 NNE 2 2 1023.2 - 0.0 - - - - - - -
16/04:00am 12.4 E 1 1 1023.0 - 0.0 - - - - - - -
16/03:30am 12.4 ENE 3 4 1023.2 - 0.0 - - - - - - -
16/03:00am 12.8 NE 1 2 1023.4 - 0.0 - - - - - - -
16/02:30am 13.0 NNW 4 5 1023.8 - 0.0 - - - - - - -
16/02:00am 13.1 NW 4 4 1024.2 - 0.0 - - - - - - -

Other Formats:

Comma delimited format used in spreadsheet applications
http://www.bom.gov.au/fwo/IDT60701/IDT60701.95988.axf

JavaScript Object Notation format (JSON) in row-major order
http://www.bom.gov.au/fwo/IDT60701/IDT60701.95988.json